sensor_id;sensor_type;location;lat;lon;timestamp;temperature;humidity
2202;DHT22;1107;48.654;9.250;2023-11-19T00:02:26;7.40;99.90
2202;DHT22;1107;48.654;9.250;2023-11-19T00:04:53;7.40;99.90
2202;DHT22;1107;48.654;9.250;2023-11-19T00:07:20;7.40;99.90
2202;DHT22;1107;48.654;9.250;2023-11-19T00:09:47;7.50;99.90
2202;DHT22;1107;48.654;9.250;2023-11-19T00:12:14;7.60;99.90
2202;DHT22;1107;48.654;9.250;2023-11-19T00:14:42;7.60;99.90
2202;DHT22;1107;48.654;9.250;2023-11-19T00:17:09;7.70;99.90
2202;DHT22;1107;48.654;9.250;2023-11-19T00:19:36;7.70;99.90
2202;DHT22;1107;48.654;9.250;2023-11-19T00:22:03;7.80;99.90
2202;DHT22;1107;48.654;9.250;2023-11-19T00:24:30;7.80;99.90
2202;DHT22;1107;48.654;9.250;2023-11-19T00:26:57;7.90;99.90
2202;DHT22;1107;48.654;9.250;2023-11-19T00:29:24;7.90;99.90
2202;DHT22;1107;48.654;9.250;2023-11-19T00:31:52;7.90;99.90
2202;DHT22;1107;48.654;9.250;2023-11-19T00:34:20;7.90;99.90
2202;DHT22;1107;48.654;9.250;2023-11-19T00:36:48;7.90;99.90
2202;DHT22;1107;48.654;9.250;2023-11-19T00:39:15;7.90;99.90
2202;DHT22;1107;48.654;9.250;2023-11-19T00:41:43;7.90;99.90
2202;DHT22;1107;48.654;9.250;2023-11-19T00:44:11;7.90;99.90
2202;DHT22;1107;48.654;9.250;2023-11-19T00:46:38;8.00;99.90
2202;DHT22;1107;48.654;9.250;2023-11-19T00:49:07;8.00;99.90
2202;DHT22;1107;48.654;9.250;2023-11-19T00:51:34;8.00;99.90
2202;DHT22;1107;48.654;9.250;2023-11-19T00:54:01;8.00;99.90
2202;DHT22;1107;48.654;9.250;2023-11-19T00:56:28;8.00;99.90
2202;DHT22;1107;48.654;9.250;2023-11-19T00:58:55;8.00;99.90
2202;DHT22;1107;48.654;9.250;2023-11-19T01:01:22;8.10;99.90
2202;DHT22;1107;48.654;9.250;2023-11-19T01:03:49;8.10;99.90
2202;DHT22;1107;48.654;9.250;2023-11-19T01:06:28;8.10;99.90
2202;DHT22;1107;48.654;9.250;2023-11-19T01:08:55;8.10;99.90
2202;DHT22;1107;48.654;9.250;2023-11-19T01:11:22;8.10;99.90
2202;DHT22;1107;48.654;9.250;2023-11-19T01:13:49;8.10;99.90
2202;DHT22;1107;48.654;9.250;2023-11-19T01:16:17;8.10;99.90
2202;DHT22;1107;48.654;9.250;2023-11-19T01:18:45;8.20;99.90
2202;DHT22;1107;48.654;9.250;2023-11-19T01:21:13;8.20;99.90
2202;DHT22;1107;48.654;9.250;2023-11-19T01:23:42;8.20;99.90
2202;DHT22;1107;48.654;9.250;2023-11-19T01:26:09;8.20;99.90
2202;DHT22;1107;48.654;9.250;2023-11-19T01:28:37;8.20;99.90
2202;DHT22;1107;48.654;9.250;2023-11-19T01:31:05;8.20;99.90
2202;DHT22;1107;48.654;9.250;2023-11-19T01:33:35;8.30;99.90
2202;DHT22;1107;48.654;9.250;2023-11-19T01:36:02;8.30;99.90
2202;DHT22;1107;48.654;9.250;2023-11-19T01:38:30;8.30;99.90
2202;DHT22;1107;48.654;9.250;2023-11-19T01:40:59;8.30;99.90
2202;DHT22;1107;48.654;9.250;2023-11-19T01:43:33;8.30;99.90
2202;DHT22;1107;48.654;9.250;2023-11-19T01:46:01;8.40;99.90
2202;DHT22;1107;48.654;9.250;2023-11-19T01:48:28;8.40;99.90
2202;DHT22;1107;48.654;9.250;2023-11-19T01:50:56;8.40;99.90
2202;DHT22;1107;48.654;9.250;2023-11-19T01:53:24;8.40;99.90
2202;DHT22;1107;48.654;9.250;2023-11-19T01:55:51;8.50;99.90
2202;DHT22;1107;48.654;9.250;2023-11-19T01:58:20;8.60;99.90
2202;DHT22;1107;48.654;9.250;2023-11-19T02:00:47;8.60;99.90
2202;DHT22;1107;48.654;9.250;2023-11-19T02:03:15;8.70;99.90
2202;DHT22;1107;48.654;9.250;2023-11-19T02:05:42;8.70;99.90
2202;DHT22;1107;48.654;9.250;2023-11-19T02:08:09;8.80;99.90
2202;DHT22;1107;48.654;9.250;2023-11-19T02:10:37;8.90;99.90
2202;DHT22;1107;48.654;9.250;2023-11-19T02:13:04;8.90;99.90
2202;DHT22;1107;48.654;9.250;2023-11-19T02:15:34;8.90;99.90
2202;DHT22;1107;48.654;9.250;2023-11-19T02:18:21;9.00;99.90
2202;DHT22;1107;48.654;9.250;2023-11-19T02:20:48;9.00;99.90
2202;DHT22;1107;48.654;9.250;2023-11-19T02:23:16;9.00;99.90
2202;DHT22;1107;48.654;9.250;2023-11-19T02:25:49;9.00;99.90
2202;DHT22;1107;48.654;9.250;2023-11-19T02:28:19;9.10;99.90
2202;DHT22;1107;48.654;9.250;2023-11-19T02:30:47;9.10;99.90
2202;DHT22;1107;48.654;9.250;2023-11-19T02:33:14;9.10;99.90
2202;DHT22;1107;48.654;9.250;2023-11-19T02:35:41;9.20;99.90
2202;DHT22;1107;48.654;9.250;2023-11-19T02:38:08;9.20;99.90
2202;DHT22;1107;48.654;9.250;2023-11-19T02:40:35;9.20;99.90
2202;DHT22;1107;48.654;9.250;2023-11-19T02:43:02;9.20;99.90
2202;DHT22;1107;48.654;9.250;2023-11-19T02:45:32;9.20;99.90
2202;DHT22;1107;48.654;9.250;2023-11-19T02:47:59;9.30;99.90
2202;DHT22;1107;48.654;9.250;2023-11-19T02:50:27;9.30;99.90
2202;DHT22;1107;48.654;9.250;2023-11-19T02:52:55;9.30;99.90
2202;DHT22;1107;48.654;9.250;2023-11-19T02:55:23;9.30;99.90
2202;DHT22;1107;48.654;9.250;2023-11-19T02:57:51;9.30;99.90
2202;DHT22;1107;48.654;9.250;2023-11-19T03:00:20;9.40;99.90
2202;DHT22;1107;48.654;9.250;2023-11-19T03:02:52;9.40;99.90
2202;DHT22;1107;48.654;9.250;2023-11-19T03:05:27;9.40;99.90
2202;DHT22;1107;48.654;9.250;2023-11-19T03:07:56;9.50;99.90
2202;DHT22;1107;48.654;9.250;2023-11-19T03:10:23;9.50;99.90
2202;DHT22;1107;48.654;9.250;2023-11-19T03:12:50;9.50;99.90
2202;DHT22;1107;48.654;9.250;2023-11-19T03:15:18;9.50;99.90
2202;DHT22;1107;48.654;9.250;2023-11-19T03:17:46;9.60;99.90
2202;DHT22;1107;48.654;9.250;2023-11-19T03:20:15;9.60;99.90
2202;DHT22;1107;48.654;9.250;2023-11-19T03:22:42;9.60;99.90
2202;DHT22;1107;48.654;9.250;2023-11-19T03:25:10;9.70;99.90
2202;DHT22;1107;48.654;9.250;2023-11-19T03:27:37;9.70;99.90
2202;DHT22;1107;48.654;9.250;2023-11-19T03:30:08;9.70;99.90
2202;DHT22;1107;48.654;9.250;2023-11-19T03:32:35;9.70;99.90
2202;DHT22;1107;48.654;9.250;2023-11-19T03:35:03;9.70;99.90
2202;DHT22;1107;48.654;9.250;2023-11-19T03:37:33;9.80;99.90
2202;DHT22;1107;48.654;9.250;2023-11-19T03:40:01;9.80;99.90
2202;DHT22;1107;48.654;9.250;2023-11-19T03:42:29;9.80;99.90
2202;DHT22;1107;48.654;9.250;2023-11-19T03:44:56;9.80;99.90
2202;DHT22;1107;48.654;9.250;2023-11-19T03:47:23;9.80;99.90
2202;DHT22;1107;48.654;9.250;2023-11-19T03:49:51;9.80;99.90
2202;DHT22;1107;48.654;9.250;2023-11-19T03:52:18;9.80;99.90
2202;DHT22;1107;48.654;9.250;2023-11-19T03:54:46;9.80;99.90
2202;DHT22;1107;48.654;9.250;2023-11-19T03:57:13;9.80;99.90
2202;DHT22;1107;48.654;9.250;2023-11-19T03:59:41;9.90;99.90
2202;DHT22;1107;48.654;9.250;2023-11-19T04:02:08;9.90;99.90
2202;DHT22;1107;48.654;9.250;2023-11-19T04:04:35;9.90;99.90
2202;DHT22;1107;48.654;9.250;2023-11-19T04:07:03;9.90;99.90
2202;DHT22;1107;48.654;9.250;2023-11-19T04:09:30;9.90;99.90
2202;DHT22;1107;48.654;9.250;2023-11-19T04:11:59;9.90;99.90
2202;DHT22;1107;48.654;9.250;2023-11-19T04:14:27;10.00;99.90
2202;DHT22;1107;48.654;9.250;2023-11-19T04:16:54;10.00;99.90
2202;DHT22;1107;48.654;9.250;2023-11-19T04:19:21;10.00;99.90
2202;DHT22;1107;48.654;9.250;2023-11-19T04:21:48;10.00;99.90
2202;DHT22;1107;48.654;9.250;2023-11-19T04:24:15;10.00;99.90
2202;DHT22;1107;48.654;9.250;2023-11-19T04:26:42;10.00;99.90
2202;DHT22;1107;48.654;9.250;2023-11-19T04:29:13;10.00;99.90
2202;DHT22;1107;48.654;9.250;2023-11-19T04:31:42;10.00;99.90
2202;DHT22;1107;48.654;9.250;2023-11-19T04:34:09;10.00;99.90
2202;DHT22;1107;48.654;9.250;2023-11-19T04:36:37;10.00;99.90
2202;DHT22;1107;48.654;9.250;2023-11-19T04:39:05;10.00;99.90
2202;DHT22;1107;48.654;9.250;2023-11-19T04:41:35;10.10;99.90
2202;DHT22;1107;48.654;9.250;2023-11-19T04:44:02;10.10;99.90
2202;DHT22;1107;48.654;9.250;2023-11-19T04:46:30;10.10;99.90
2202;DHT22;1107;48.654;9.250;2023-11-19T04:48:57;10.10;99.90
2202;DHT22;1107;48.654;9.250;2023-11-19T04:51:24;10.10;99.90
2202;DHT22;1107;48.654;9.250;2023-11-19T04:53:51;10.20;99.90
2202;DHT22;1107;48.654;9.250;2023-11-19T04:56:18;10.20;99.90
2202;DHT22;1107;48.654;9.250;2023-11-19T04:58:47;10.20;99.90
2202;DHT22;1107;48.654;9.250;2023-11-19T05:01:14;10.20;99.90
2202;DHT22;1107;48.654;9.250;2023-11-19T05:03:44;10.20;99.90
2202;DHT22;1107;48.654;9.250;2023-11-19T05:06:12;10.30;99.90
2202;DHT22;1107;48.654;9.250;2023-11-19T05:08:39;10.30;99.90
2202;DHT22;1107;48.654;9.250;2023-11-19T05:11:06;10.30;99.90
2202;DHT22;1107;48.654;9.250;2023-11-19T05:13:32;10.30;99.90
2202;DHT22;1107;48.654;9.250;2023-11-19T05:15:59;10.30;99.90
2202;DHT22;1107;48.654;9.250;2023-11-19T05:18:26;10.30;99.90
2202;DHT22;1107;48.654;9.250;2023-11-19T05:20:55;10.30;99.90
2202;DHT22;1107;48.654;9.250;2023-11-19T05:23:22;10.30;99.90
2202;DHT22;1107;48.654;9.250;2023-11-19T05:25:48;10.40;99.90
2202;DHT22;1107;48.654;9.250;2023-11-19T05:28:15;10.40;99.90
2202;DHT22;1107;48.654;9.250;2023-11-19T05:30:42;10.40;99.90
2202;DHT22;1107;48.654;9.250;2023-11-19T05:33:10;10.40;99.90
2202;DHT22;1107;48.654;9.250;2023-11-19T05:35:37;10.40;99.90
2202;DHT22;1107;48.654;9.250;2023-11-19T05:38:05;10.40;99.90
2202;DHT22;1107;48.654;9.250;2023-11-19T05:40:32;10.40;99.90
2202;DHT22;1107;48.654;9.250;2023-11-19T05:42:59;10.40;99.90
2202;DHT22;1107;48.654;9.250;2023-11-19T05:45:26;10.40;99.90
2202;DHT22;1107;48.654;9.250;2023-11-19T05:47:53;10.40;99.90
2202;DHT22;1107;48.654;9.250;2023-11-19T05:50:20;10.40;99.90
2202;DHT22;1107;48.654;9.250;2023-11-19T05:52:47;10.50;99.90
2202;DHT22;1107;48.654;9.250;2023-11-19T05:55:16;10.50;99.90
2202;DHT22;1107;48.654;9.250;2023-11-19T05:57:42;10.50;99.90
2202;DHT22;1107;48.654;9.250;2023-11-19T06:00:10;10.50;99.90
2202;DHT22;1107;48.654;9.250;2023-11-19T06:02:38;10.50;99.90
2202;DHT22;1107;48.654;9.250;2023-11-19T06:05:05;10.50;99.90
2202;DHT22;1107;48.654;9.250;2023-11-19T06:07:32;10.50;99.90
2202;DHT22;1107;48.654;9.250;2023-11-19T06:09:59;10.50;99.90
2202;DHT22;1107;48.654;9.250;2023-11-19T06:12:27;10.60;99.90
2202;DHT22;1107;48.654;9.250;2023-11-19T06:14:53;10.50;99.90
2202;DHT22;1107;48.654;9.250;2023-11-19T06:17:20;10.50;99.90
2202;DHT22;1107;48.654;9.250;2023-11-19T06:19:47;10.60;99.90
2202;DHT22;1107;48.654;9.250;2023-11-19T06:22:14;10.60;99.90
2202;DHT22;1107;48.654;9.250;2023-11-19T06:24:41;10.60;99.90
2202;DHT22;1107;48.654;9.250;2023-11-19T06:27:08;10.60;99.90
2202;DHT22;1107;48.654;9.250;2023-11-19T06:29:36;10.60;99.90
2202;DHT22;1107;48.654;9.250;2023-11-19T06:32:03;10.60;99.90
2202;DHT22;1107;48.654;9.250;2023-11-19T06:34:31;10.60;99.90
2202;DHT22;1107;48.654;9.250;2023-11-19T06:36:58;10.60;99.90
2202;DHT22;1107;48.654;9.250;2023-11-19T06:39:25;10.50;99.90
2202;DHT22;1107;48.654;9.250;2023-11-19T06:41:52;10.60;99.90
2202;DHT22;1107;48.654;9.250;2023-11-19T06:44:18;10.50;99.90
2202;DHT22;1107;48.654;9.250;2023-11-19T06:46:46;10.50;99.90
2202;DHT22;1107;48.654;9.250;2023-11-19T06:49:14;10.50;99.90
2202;DHT22;1107;48.654;9.250;2023-11-19T06:51:42;10.60;99.90
2202;DHT22;1107;48.654;9.250;2023-11-19T06:54:09;10.60;99.90
2202;DHT22;1107;48.654;9.250;2023-11-19T06:56:36;10.60;99.90
2202;DHT22;1107;48.654;9.250;2023-11-19T06:59:03;10.60;99.90
2202;DHT22;1107;48.654;9.250;2023-11-19T07:01:34;10.60;99.90
2202;DHT22;1107;48.654;9.250;2023-11-19T07:04:02;10.60;99.90
2202;DHT22;1107;48.654;9.250;2023-11-19T07:06:33;10.60;99.90
2202;DHT22;1107;48.654;9.250;2023-11-19T07:09:00;10.60;99.90
2202;DHT22;1107;48.654;9.250;2023-11-19T07:11:34;10.60;99.90
2202;DHT22;1107;48.654;9.250;2023-11-19T07:14:01;10.60;99.90
2202;DHT22;1107;48.654;9.250;2023-11-19T07:16:28;10.60;99.90
2202;DHT22;1107;48.654;9.250;2023-11-19T07:18:55;10.70;99.90
2202;DHT22;1107;48.654;9.250;2023-11-19T07:21:23;10.70;99.90
2202;DHT22;1107;48.654;9.250;2023-11-19T07:23:50;10.70;99.90
2202;DHT22;1107;48.654;9.250;2023-11-19T07:26:17;10.70;99.90
2202;DHT22;1107;48.654;9.250;2023-11-19T07:28:44;10.70;99.90
2202;DHT22;1107;48.654;9.250;2023-11-19T07:31:11;10.70;99.90
2202;DHT22;1107;48.654;9.250;2023-11-19T07:33:39;10.70;99.90
2202;DHT22;1107;48.654;9.250;2023-11-19T07:36:08;10.70;99.90
2202;DHT22;1107;48.654;9.250;2023-11-19T07:38:36;10.70;99.90
2202;DHT22;1107;48.654;9.250;2023-11-19T07:41:03;10.70;99.90
2202;DHT22;1107;48.654;9.250;2023-11-19T07:43:30;10.70;99.90
2202;DHT22;1107;48.654;9.250;2023-11-19T07:45:57;10.80;99.90
2202;DHT22;1107;48.654;9.250;2023-11-19T07:48:24;10.80;99.90
2202;DHT22;1107;48.654;9.250;2023-11-19T07:50:51;10.80;99.90
2202;DHT22;1107;48.654;9.250;2023-11-19T07:53:18;10.80;99.90
2202;DHT22;1107;48.654;9.250;2023-11-19T07:55:47;10.80;99.90
2202;DHT22;1107;48.654;9.250;2023-11-19T07:58:13;10.80;99.90
2202;DHT22;1107;48.654;9.250;2023-11-19T08:00:40;10.80;99.90
2202;DHT22;1107;48.654;9.250;2023-11-19T08:03:07;10.80;99.90
2202;DHT22;1107;48.654;9.250;2023-11-19T08:05:33;10.80;99.90
2202;DHT22;1107;48.654;9.250;2023-11-19T08:08:00;10.80;99.90
2202;DHT22;1107;48.654;9.250;2023-11-19T08:10:27;10.80;99.90
2202;DHT22;1107;48.654;9.250;2023-11-19T08:12:55;10.90;99.90
2202;DHT22;1107;48.654;9.250;2023-11-19T08:15:22;10.90;99.90
2202;DHT22;1107;48.654;9.250;2023-11-19T08:17:49;10.80;99.90
2202;DHT22;1107;48.654;9.250;2023-11-19T08:20:16;10.90;99.90
2202;DHT22;1107;48.654;9.250;2023-11-19T08:22:43;10.90;99.90
2202;DHT22;1107;48.654;9.250;2023-11-19T08:25:10;10.90;99.90
2202;DHT22;1107;48.654;9.250;2023-11-19T08:27:36;11.00;99.90
2202;DHT22;1107;48.654;9.250;2023-11-19T08:30:05;11.10;99.90
2202;DHT22;1107;48.654;9.250;2023-11-19T08:32:32;11.20;99.90
2202;DHT22;1107;48.654;9.250;2023-11-19T08:34:59;11.50;99.90
2202;DHT22;1107;48.654;9.250;2023-11-19T08:37:25;11.70;99.90
2202;DHT22;1107;48.654;9.250;2023-11-19T08:39:52;11.70;99.90
2202;DHT22;1107;48.654;9.250;2023-11-19T08:42:19;11.60;99.90
2202;DHT22;1107;48.654;9.250;2023-11-19T08:44:48;11.70;99.90
2202;DHT22;1107;48.654;9.250;2023-11-19T08:47:17;12.00;99.90
2202;DHT22;1107;48.654;9.250;2023-11-19T08:49:44;12.50;99.90
2202;DHT22;1107;48.654;9.250;2023-11-19T08:52:11;12.60;99.90
2202;DHT22;1107;48.654;9.250;2023-11-19T08:54:37;12.50;99.90
2202;DHT22;1107;48.654;9.250;2023-11-19T08:57:04;12.50;99.90
2202;DHT22;1107;48.654;9.250;2023-11-19T08:59:32;12.50;99.90
2202;DHT22;1107;48.654;9.250;2023-11-19T09:01:59;12.50;99.90
2202;DHT22;1107;48.654;9.250;2023-11-19T09:04:27;12.50;99.90
2202;DHT22;1107;48.654;9.250;2023-11-19T09:06:54;12.50;99.90
2202;DHT22;1107;48.654;9.250;2023-11-19T09:09:21;12.50;99.90
2202;DHT22;1107;48.654;9.250;2023-11-19T09:11:47;12.50;99.90
2202;DHT22;1107;48.654;9.250;2023-11-19T09:14:14;12.70;99.90
2202;DHT22;1107;48.654;9.250;2023-11-19T09:16:41;12.80;99.90
2202;DHT22;1107;48.654;9.250;2023-11-19T09:19:08;12.90;99.90
2202;DHT22;1107;48.654;9.250;2023-11-19T09:21:36;12.80;99.90
2202;DHT22;1107;48.654;9.250;2023-11-19T09:24:04;12.80;99.90
2202;DHT22;1107;48.654;9.250;2023-11-19T09:26:32;12.80;99.90
2202;DHT22;1107;48.654;9.250;2023-11-19T09:28:59;12.70;99.90
2202;DHT22;1107;48.654;9.250;2023-11-19T09:31:26;12.80;99.90
2202;DHT22;1107;48.654;9.250;2023-11-19T09:33:53;12.70;99.90
2202;DHT22;1107;48.654;9.250;2023-11-19T09:36:20;12.70;99.90
2202;DHT22;1107;48.654;9.250;2023-11-19T09:38:48;12.80;99.90
2202;DHT22;1107;48.654;9.250;2023-11-19T09:41:15;12.90;99.90
2202;DHT22;1107;48.654;9.250;2023-11-19T09:43:42;13.20;99.90
2202;DHT22;1107;48.654;9.250;2023-11-19T09:46:09;13.30;99.90
2202;DHT22;1107;48.654;9.250;2023-11-19T09:48:37;13.20;99.90
2202;DHT22;1107;48.654;9.250;2023-11-19T09:51:05;13.20;99.90
2202;DHT22;1107;48.654;9.250;2023-11-19T09:53:32;13.20;99.90
2202;DHT22;1107;48.654;9.250;2023-11-19T09:56:01;13.70;99.90
2202;DHT22;1107;48.654;9.250;2023-11-19T09:58:28;14.40;99.90
2202;DHT22;1107;48.654;9.250;2023-11-19T10:00:55;14.50;99.90
2202;DHT22;1107;48.654;9.250;2023-11-19T10:03:24;14.40;99.90
2202;DHT22;1107;48.654;9.250;2023-11-19T10:05:52;14.80;99.90
2202;DHT22;1107;48.654;9.250;2023-11-19T10:08:20;14.90;99.90
2202;DHT22;1107;48.654;9.250;2023-11-19T10:10:47;14.80;99.90
2202;DHT22;1107;48.654;9.250;2023-11-19T10:13:16;15.20;99.90
2202;DHT22;1107;48.654;9.250;2023-11-19T10:15:43;14.60;99.90
2202;DHT22;1107;48.654;9.250;2023-11-19T10:18:11;14.30;99.90
2202;DHT22;1107;48.654;9.250;2023-11-19T10:20:40;14.00;99.90
2202;DHT22;1107;48.654;9.250;2023-11-19T10:23:07;13.80;99.90
2202;DHT22;1107;48.654;9.250;2023-11-19T10:25:35;13.50;99.90
2202;DHT22;1107;48.654;9.250;2023-11-19T10:28:02;13.50;99.90
2202;DHT22;1107;48.654;9.250;2023-11-19T10:30:31;13.50;99.90
2202;DHT22;1107;48.654;9.250;2023-11-19T10:33:04;13.40;99.90
2202;DHT22;1107;48.654;9.250;2023-11-19T10:35:32;14.00;99.90
2202;DHT22;1107;48.654;9.250;2023-11-19T10:38:00;13.80;99.90
2202;DHT22;1107;48.654;9.250;2023-11-19T10:40:39;14.40;99.90
2202;DHT22;1107;48.654;9.250;2023-11-19T10:43:07;14.60;99.90
2202;DHT22;1107;48.654;9.250;2023-11-19T10:45:36;14.50;99.90
2202;DHT22;1107;48.654;9.250;2023-11-19T10:48:04;14.50;99.90
2202;DHT22;1107;48.654;9.250;2023-11-19T10:50:33;14.40;99.90
2202;DHT22;1107;48.654;9.250;2023-11-19T10:53:00;14.80;99.90
2202;DHT22;1107;48.654;9.250;2023-11-19T10:55:31;17.20;99.90
2202;DHT22;1107;48.654;9.250;2023-11-19T10:58:02;18.90;99.90
2202;DHT22;1107;48.654;9.250;2023-11-19T11:00:44;20.30;99.90
2202;DHT22;1107;48.654;9.250;2023-11-19T11:03:16;21.70;99.90
2202;DHT22;1107;48.654;9.250;2023-11-19T11:05:46;20.20;99.90
2202;DHT22;1107;48.654;9.250;2023-11-19T11:08:14;20.30;99.90
2202;DHT22;1107;48.654;9.250;2023-11-19T11:10:44;19.20;99.90
2202;DHT22;1107;48.654;9.250;2023-11-19T11:13:13;18.20;99.90
2202;DHT22;1107;48.654;9.250;2023-11-19T11:15:41;17.30;99.90
2202;DHT22;1107;48.654;9.250;2023-11-19T11:18:09;16.70;99.90
2202;DHT22;1107;48.654;9.250;2023-11-19T11:20:36;16.50;99.90
2202;DHT22;1107;48.654;9.250;2023-11-19T11:23:30;16.30;99.90
2202;DHT22;1107;48.654;9.250;2023-11-19T11:26:13;16.30;99.90
2202;DHT22;1107;48.654;9.250;2023-11-19T11:28:48;16.20;99.90
2202;DHT22;1107;48.654;9.250;2023-11-19T11:31:30;15.90;99.90
2202;DHT22;1107;48.654;9.250;2023-11-19T11:34:24;15.80;99.90
2202;DHT22;1107;48.654;9.250;2023-11-19T11:37:01;15.50;99.90
2202;DHT22;1107;48.654;9.250;2023-11-19T11:39:33;15.50;99.90
2202;DHT22;1107;48.654;9.250;2023-11-19T11:42:30;15.30;99.90
2202;DHT22;1107;48.654;9.250;2023-11-19T11:45:01;15.40;99.90
2202;DHT22;1107;48.654;9.250;2023-11-19T11:50:33;15.70;99.90
2202;DHT22;1107;48.654;9.250;2023-11-19T11:53:17;16.20;99.90
2202;DHT22;1107;48.654;9.250;2023-11-19T11:56:00;15.50;99.90
2202;DHT22;1107;48.654;9.250;2023-11-19T11:58:32;15.60;99.90
2202;DHT22;1107;48.654;9.250;2023-11-19T12:01:04;16.00;99.90
2202;DHT22;1107;48.654;9.250;2023-11-19T12:03:32;15.80;99.90
2202;DHT22;1107;48.654;9.250;2023-11-19T12:06:01;15.60;99.90
2202;DHT22;1107;48.654;9.250;2023-11-19T12:08:29;15.80;99.90
2202;DHT22;1107;48.654;9.250;2023-11-19T12:10:58;17.50;99.90
2202;DHT22;1107;48.654;9.250;2023-11-19T12:13:42;18.50;99.90
2202;DHT22;1107;48.654;9.250;2023-11-19T12:16:11;20.10;99.90
2202;DHT22;1107;48.654;9.250;2023-11-19T12:18:39;20.10;99.90
2202;DHT22;1107;48.654;9.250;2023-11-19T12:21:11;20.50;99.90
2202;DHT22;1107;48.654;9.250;2023-11-19T12:23:45;19.60;99.90
2202;DHT22;1107;48.654;9.250;2023-11-19T12:26:36;21.00;99.90
2202;DHT22;1107;48.654;9.250;2023-11-19T12:29:03;21.60;99.90
2202;DHT22;1107;48.654;9.250;2023-11-19T12:31:34;20.20;99.90
2202;DHT22;1107;48.654;9.250;2023-11-19T12:34:09;18.40;99.90
2202;DHT22;1107;48.654;9.250;2023-11-19T12:36:40;17.50;99.90
2202;DHT22;1107;48.654;9.250;2023-11-19T12:39:07;17.70;99.90
2202;DHT22;1107;48.654;9.250;2023-11-19T12:41:51;17.30;99.90
2202;DHT22;1107;48.654;9.250;2023-11-19T12:44:18;18.10;99.90
2202;DHT22;1107;48.654;9.250;2023-11-19T12:46:45;18.10;99.90
2202;DHT22;1107;48.654;9.250;2023-11-19T12:49:12;18.40;99.90
2202;DHT22;1107;48.654;9.250;2023-11-19T12:51:40;18.50;99.90
2202;DHT22;1107;48.654;9.250;2023-11-19T12:54:07;19.20;99.90
2202;DHT22;1107;48.654;9.250;2023-11-19T12:56:34;20.20;1.00
2202;DHT22;1107;48.654;9.250;2023-11-19T12:59:10;20.20;99.90
2202;DHT22;1107;48.654;9.250;2023-11-19T13:01:38;19.80;99.90
2202;DHT22;1107;48.654;9.250;2023-11-19T13:04:16;19.90;99.90
2202;DHT22;1107;48.654;9.250;2023-11-19T13:06:46;20.50;99.90
2202;DHT22;1107;48.654;9.250;2023-11-19T13:09:22;21.00;99.90
2202;DHT22;1107;48.654;9.250;2023-11-19T13:11:49;19.90;99.90
2202;DHT22;1107;48.654;9.250;2023-11-19T13:14:17;18.60;99.90
2202;DHT22;1107;48.654;9.250;2023-11-19T13:16:44;17.80;99.90
2202;DHT22;1107;48.654;9.250;2023-11-19T13:19:12;16.70;99.90
2202;DHT22;1107;48.654;9.250;2023-11-19T13:21:39;16.20;1.00
2202;DHT22;1107;48.654;9.250;2023-11-19T13:24:08;17.10;99.90
2202;DHT22;1107;48.654;9.250;2023-11-19T13:26:35;17.50;1.00
2202;DHT22;1107;48.654;9.250;2023-11-19T13:29:02;17.00;1.00
2202;DHT22;1107;48.654;9.250;2023-11-19T13:31:29;17.90;1.00
2202;DHT22;1107;48.654;9.250;2023-11-19T13:33:56;18.70;99.90
2202;DHT22;1107;48.654;9.250;2023-11-19T13:36:24;18.40;99.90
2202;DHT22;1107;48.654;9.250;2023-11-19T13:38:52;18.30;99.90
2202;DHT22;1107;48.654;9.250;2023-11-19T13:41:25;18.10;99.90
2202;DHT22;1107;48.654;9.250;2023-11-19T13:43:52;17.60;99.90
2202;DHT22;1107;48.654;9.250;2023-11-19T13:46:20;18.40;99.90
2202;DHT22;1107;48.654;9.250;2023-11-19T13:48:47;19.60;99.90
2202;DHT22;1107;48.654;9.250;2023-11-19T13:51:16;19.70;99.90
2202;DHT22;1107;48.654;9.250;2023-11-19T13:53:43;19.50;99.90
2202;DHT22;1107;48.654;9.250;2023-11-19T13:56:10;18.60;99.90
2202;DHT22;1107;48.654;9.250;2023-11-19T13:58:38;18.20;99.90
2202;DHT22;1107;48.654;9.250;2023-11-19T14:01:06;18.10;99.90
2202;DHT22;1107;48.654;9.250;2023-11-19T14:03:34;17.30;99.90
2202;DHT22;1107;48.654;9.250;2023-11-19T14:06:00;17.00;99.90
2202;DHT22;1107;48.654;9.250;2023-11-19T14:08:28;16.70;99.90
2202;DHT22;1107;48.654;9.250;2023-11-19T14:10:55;17.00;99.90
2202;DHT22;1107;48.654;9.250;2023-11-19T14:13:22;17.40;99.90
2202;DHT22;1107;48.654;9.250;2023-11-19T14:15:51;17.70;99.90
2202;DHT22;1107;48.654;9.250;2023-11-19T14:18:18;18.90;99.90
2202;DHT22;1107;48.654;9.250;2023-11-19T14:20:45;19.60;99.90
2202;DHT22;1107;48.654;9.250;2023-11-19T14:23:12;20.10;99.90
2202;DHT22;1107;48.654;9.250;2023-11-19T14:25:39;20.30;99.90
2202;DHT22;1107;48.654;9.250;2023-11-19T14:28:05;19.30;99.90
2202;DHT22;1107;48.654;9.250;2023-11-19T14:30:33;18.70;99.90
2202;DHT22;1107;48.654;9.250;2023-11-19T14:33:02;17.80;99.90
2202;DHT22;1107;48.654;9.250;2023-11-19T14:35:30;18.20;99.90
2202;DHT22;1107;48.654;9.250;2023-11-19T14:37:58;18.40;99.90
2202;DHT22;1107;48.654;9.250;2023-11-19T14:40:25;18.70;99.90
2202;DHT22;1107;48.654;9.250;2023-11-19T14:42:52;18.90;99.90
2202;DHT22;1107;48.654;9.250;2023-11-19T14:45:19;18.10;99.90
2202;DHT22;1107;48.654;9.250;2023-11-19T14:47:46;17.10;99.90
2202;DHT22;1107;48.654;9.250;2023-11-19T14:50:15;16.40;99.90
2202;DHT22;1107;48.654;9.250;2023-11-19T14:52:42;15.80;1.00
2202;DHT22;1107;48.654;9.250;2023-11-19T14:55:09;15.40;99.90
2202;DHT22;1107;48.654;9.250;2023-11-19T14:57:37;15.00;99.90
2202;DHT22;1107;48.654;9.250;2023-11-19T15:00:08;14.80;99.90
2202;DHT22;1107;48.654;9.250;2023-11-19T15:02:39;14.50;99.90
2202;DHT22;1107;48.654;9.250;2023-11-19T15:05:07;14.30;99.90
2202;DHT22;1107;48.654;9.250;2023-11-19T15:07:37;14.20;99.90
2202;DHT22;1107;48.654;9.250;2023-11-19T15:10:07;14.10;99.90
2202;DHT22;1107;48.654;9.250;2023-11-19T15:12:36;14.00;99.90
2202;DHT22;1107;48.654;9.250;2023-11-19T15:15:07;13.90;99.90
2202;DHT22;1107;48.654;9.250;2023-11-19T15:17:34;13.80;99.90
2202;DHT22;1107;48.654;9.250;2023-11-19T15:20:02;13.70;99.90
2202;DHT22;1107;48.654;9.250;2023-11-19T15:22:29;13.50;99.90
2202;DHT22;1107;48.654;9.250;2023-11-19T15:24:58;13.50;99.90
2202;DHT22;1107;48.654;9.250;2023-11-19T15:27:25;13.40;99.90
2202;DHT22;1107;48.654;9.250;2023-11-19T15:29:52;13.30;99.90
2202;DHT22;1107;48.654;9.250;2023-11-19T15:32:19;13.30;99.90
2202;DHT22;1107;48.654;9.250;2023-11-19T15:34:46;13.20;99.90
2202;DHT22;1107;48.654;9.250;2023-11-19T15:37:14;13.10;99.90
2202;DHT22;1107;48.654;9.250;2023-11-19T15:39:41;13.10;99.90
2202;DHT22;1107;48.654;9.250;2023-11-19T15:42:09;13.00;99.90
2202;DHT22;1107;48.654;9.250;2023-11-19T15:44:37;12.90;99.90
2202;DHT22;1107;48.654;9.250;2023-11-19T15:47:05;12.90;99.90
2202;DHT22;1107;48.654;9.250;2023-11-19T15:49:32;12.80;99.90
2202;DHT22;1107;48.654;9.250;2023-11-19T15:51:59;12.80;99.90
2202;DHT22;1107;48.654;9.250;2023-11-19T15:54:26;12.70;99.90
2202;DHT22;1107;48.654;9.250;2023-11-19T15:56:53;12.60;99.90
2202;DHT22;1107;48.654;9.250;2023-11-19T15:59:21;12.60;99.90
2202;DHT22;1107;48.654;9.250;2023-11-19T16:01:48;12.50;99.90
2202;DHT22;1107;48.654;9.250;2023-11-19T16:04:15;12.50;99.90
2202;DHT22;1107;48.654;9.250;2023-11-19T16:06:42;12.50;99.90
2202;DHT22;1107;48.654;9.250;2023-11-19T16:09:09;12.50;99.90
2202;DHT22;1107;48.654;9.250;2023-11-19T16:11:40;12.40;99.90
2202;DHT22;1107;48.654;9.250;2023-11-19T16:14:10;12.40;99.90
2202;DHT22;1107;48.654;9.250;2023-11-19T16:16:38;12.40;99.90
2202;DHT22;1107;48.654;9.250;2023-11-19T16:19:05;12.40;99.90